Relevés horaires Beauvechain (Belgique)


Relevés horaires à Beauvechain - Dimanche 08 Juill. 2018
Heure UTC1 Température [°C] Vent [km/h] Hum. [%] Pres.4 [hPa] Visi. [Km] Nébu. [octa] Préc.5 [mm] Cond.
2m. Res. Ros. Dir.2 Vit. Moy. Raf.3
23:00 16.2 16.2 10.2 N 3.7 -- 7.4 68 1025(0.4/3h) 20 -- -- --
22:00 17.3 17.3 10.3 N 5.6 -- 9.3 63 1025(0.8/3h) 20 -- -- --
21:00 18.7 18.7 10.1 N 5.6 -- 14.8 57 1024.7(1.0/3h) 20 -- -- --
20:00 20.8 20.8 9.9 N 7.4 -- 14.8 50 1024.2(0.3/3h) 20 -- -- --
19:00 22.7 22.7 8.6 N 9.3 -- 14.8 41 1023.8(-0.1/3h) 20 -- -- --
18:00 24.4 24.4 9.5 N 7.4 -- 20.4 39 1023.5(-0.6/3h) 20 -- -- --
17:00 24.6 24.6 10.2 N 7.4 -- 13.0 40 1023.7(-0.6/3h) 20 -- -- --
16:00 25.1 25.1 9.7 N 7.4 -- 14.8 38 1023.8(-0.6/3h) 20 -- -- --
15:00 23.9 23.9 9.5 N 7.4 -- 20.4 40 1024(-0.6/3h) 20 -- -- --
14:00 24.5 24.5 10.0 N 7.4 -- 20.4 40 1024.4(-0.8/3h) 20 -- -- --
13:00 24.1 24.1 10.7 NNO 5.6 -- 13.0 43 1024.5(-0.8/3h) 20 -- -- --
12:00 23.1 23.1 10.9 N 7.4 -- 16.7 46 1024.7(-0.6/3h) 19 -- -- --
11:00 22.5 22.5 10.8 N 7.4 -- 11.1 48 1025.4(-0.1/3h) 20 -- -- --
10:00 21.9 21.9 10.5 ENE 5.6 -- 11.1 48 1025.5(0.3/3h) 20 -- -- --
09:00 20.5 20.5 9.4 NE 3.7 -- 9.3 49 1025.7(0.4/3h) 20 -- -- --
08:00 19.1 19.1 7.5 E 3.7 -- 7.4 47 1025.7(0.5/3h) 20 -- -- --
07:00 17.2 17.2 10.3 ENE 3.7 -- 7.4 64 1025.5(0.8/3h) 20 -- -- --
06:00 15.8 15.8 10.1 ENE 3.7 -- 7.4 69 1025.5(0.9/3h) 20 -- -- --
05:00 14.6 14.6 9.6 NE 3.7 -- 3.7 72 1025.2(0.6/3h) 20 -- -- --
04:00 14.3 14.3 9.2 NE 3.7 -- 3.7 71 1024.7(0.2/3h) 20 -- -- --
03:00 14.8 14.8 9.4 NNO 1.9 -- 5.6 70 1024.5(0.2/3h) 20 -- -- --
02:00 15.5 15.5 9.7 E 3.7 -- 5.6 68 1024.5(0.4/3h) 20 -- -- --
01:00 15.8 15.8 10.9 NNO 1.9 -- 3.7 73 1024.4(0.2/3h) 20 -- -- --
00:00 17.2 17.2 11.5 NNO 1.9 -- 9.3 69 1024.2(0.1/3h) 20 -- -- --

1 Coordinated Universal Time. Actuellement il est 19:00 locale et 17:00 UTC.

2 Le vent souffle depuis la direction indiquée vers la direction oposée.

3 Les rafales max. sont disponible 40 min après l'heure du relevé.

4 Pour les stations d'altitude (plus de 600m) le géopotentiel du niveau le plus proche de la pression obligatoire est indiqué.

5 Les stations disposant d'un diffuseur peuvent indiquer "trace". Cela signifie que des précipitations ont touchés le sol mais que la quantité est inférieure à 0.1 mm.

Récapitulatif de la journée
Température [°C] Vent [km/h] Ensoleillement4 [h] Precipitations totale5 [mm] Pression [Hpa]
Min1 Max.2 Moy.3 Max. Min Max.
13.8 25.7 0 20.4 0 h 0 min 0 1023.5 1025.7

1 Température minimale relevée entre 18:00 UTC la veille et 18:00 UTC le jour donné.

2 Température maximale relevée entre 06:00 UTC le jour donné et 06:00 UTC le lendemain.

3 Vent moyen de la journée basé sur les relevés horaires.

4 Ensoleillement en heures relevé entre 06:00 UTC la veille et 06:00 UTC le jour donné.

5 Précipitations totales tombées entre 06:00 UTC la jour donné et 06:00 UTC le lendemain.

Graphiques horaires